createdAt,value
2023-04-02T00:08:04.558Z,3.17
2023-04-02T00:12:26.923Z,3.14
2023-04-02T00:16:55.789Z,3.13
2023-04-02T00:21:27.797Z,3.13
2023-04-02T00:25:58.169Z,3.13
2023-04-02T00:52:24.067Z,3.20
2023-04-02T00:56:43.032Z,3.21
2023-04-02T01:01:30.167Z,3.21
2023-04-02T01:05:56.667Z,3.23
2023-04-02T01:24:42.451Z,3.28
2023-04-02T01:29:26.848Z,3.28
2023-04-02T01:33:49.230Z,3.28
2023-04-02T01:38:21.283Z,3.30
2023-04-02T01:47:04.118Z,3.36
2023-04-02T01:51:37.374Z,3.31
2023-04-02T02:00:31.226Z,3.27
2023-04-02T02:22:32.443Z,3.32
2023-04-02T02:26:50.739Z,3.31
2023-04-02T02:31:22.915Z,3.30
2023-04-02T02:36:01.397Z,3.31
2023-04-02T02:40:46.395Z,3.33
2023-04-02T03:02:33.090Z,3.25
2023-04-02T03:06:57.631Z,3.20
2023-04-02T03:11:53.664Z,3.13
2023-04-02T03:38:23.588Z,2.63
2023-04-02T03:42:47.894Z,2.51
2023-04-02T03:47:28.890Z,2.42
2023-04-02T03:52:02.369Z,2.34
2023-04-02T04:22:32.097Z,2.05
2023-04-02T04:26:59.087Z,1.97
2023-04-02T04:31:20.252Z,1.91
2023-04-02T04:35:55.162Z,1.86
2023-04-02T04:40:22.551Z,1.80
2023-04-02T05:10:31.235Z,2.20
2023-04-02T05:14:49.386Z,2.26
2023-04-02T05:19:02.255Z,2.33
2023-04-02T05:27:14.813Z,2.42
2023-04-02T05:31:56.027Z,2.46
2023-04-02T05:36:26.384Z,2.53
2023-04-02T05:40:33.329Z,2.63
2023-04-02T06:10:51.492Z,3.24
2023-04-02T06:14:48.369Z,3.33
2023-04-02T06:19:21.377Z,3.43
2023-04-02T06:23:17.375Z,3.53
2023-04-02T06:27:26.724Z,3.62
2023-04-02T06:31:41.956Z,3.73
2023-04-02T06:57:44.583Z,4.45
2023-04-02T07:02:15.186Z,4.57
2023-04-02T07:06:33.158Z,4.55
2023-04-02T07:10:50.137Z,4.55
2023-04-02T07:15:02.218Z,4.69
2023-04-02T07:19:03.444Z,4.76
2023-04-02T07:59:59.907Z,4.87
2023-04-02T08:04:10.070Z,4.90
2023-04-02T08:08:40.084Z,4.93
2023-04-02T08:12:58.631Z,5.00
2023-04-02T08:17:04.041Z,5.11
2023-04-02T08:21:40.163Z,5.12
2023-04-02T09:13:17.955Z,7.41
2023-04-02T09:17:51.124Z,7.82
2023-04-02T09:22:16.606Z,8.07
2023-04-02T09:26:32.828Z,8.09
2023-04-02T09:31:08.317Z,7.78
2023-04-02T09:35:26.215Z,7.33
2023-04-02T09:39:39.474Z,7.14
2023-04-02T09:43:42.862Z,7.02
2023-04-02T09:47:37.147Z,7.02
2023-04-02T10:13:15.059Z,8.97
2023-04-02T10:17:48.341Z,9.09
2023-04-02T10:21:52.512Z,8.71
2023-04-02T10:25:22.602Z,8.24
2023-04-02T10:29:57.780Z,8.13
2023-04-02T10:34:19.968Z,8.31
2023-04-02T10:38:38.023Z,8.45
2023-04-02T10:43:05.487Z,8.50
2023-04-02T11:17:03.773Z,8.95
2023-04-02T11:21:58.804Z,8.88
2023-04-02T11:26:13.718Z,8.56
2023-04-02T11:30:44.659Z,8.53
2023-04-02T11:35:22.539Z,8.54
2023-04-02T11:39:43.133Z,9.03
2023-04-02T11:44:00.615Z,8.96
2023-04-02T11:48:32.626Z,8.99
2023-04-02T11:53:07.421Z,8.54
2023-04-02T12:01:38.046Z,8.81
2023-04-02T12:05:39.551Z,8.30
2023-04-02T12:10:12.541Z,8.56
2023-04-02T12:31:20.382Z,8.46
2023-04-02T12:35:27.975Z,8.69
2023-04-02T12:40:02.471Z,8.43
2023-04-02T12:48:16.188Z,8.65
2023-04-02T12:52:18.117Z,8.43
2023-04-02T12:56:20.310Z,8.65
2023-04-02T13:00:27.052Z,8.79
2023-04-02T13:10:30.411Z,8.83
2023-04-02T13:14:54.504Z,8.80
2023-04-02T13:18:48.472Z,8.89
2023-04-02T13:41:11.152Z,8.85
2023-04-02T13:45:11.839Z,8.77
2023-04-02T13:49:19.449Z,8.39
2023-04-02T13:53:37.422Z,8.31
2023-04-02T14:02:15.651Z,8.79
2023-04-02T14:20:20.440Z,8.12
2023-04-02T14:24:53.045Z,8.30
2023-04-02T14:46:29.251Z,8.40
2023-04-02T14:50:23.489Z,8.22
2023-04-02T14:55:17.032Z,8.27
2023-04-02T14:59:28.349Z,8.13
2023-04-02T15:03:52.761Z,8.16
2023-04-02T16:08:10.119Z,6.62
2023-04-02T16:12:04.658Z,6.40
2023-04-02T16:16:04.184Z,6.22
2023-04-02T16:20:31.426Z,6.03
2023-04-02T16:24:43.181Z,5.86
2023-04-02T16:29:22.082Z,5.74
2023-04-02T16:34:12.020Z,5.65
2023-04-02T16:38:38.889Z,5.49
2023-04-02T16:43:13.715Z,5.37
2023-04-02T16:47:55.158Z,5.23
2023-04-02T16:52:03.266Z,5.10
2023-04-02T17:01:14.852Z,4.85
2023-04-02T17:05:45.464Z,4.76
2023-04-02T17:10:01.714Z,4.65
2023-04-02T17:14:16.113Z,4.56
2023-04-02T17:18:25.180Z,4.47
2023-04-02T17:22:41.586Z,4.39
2023-04-02T17:26:48.358Z,4.29
2023-04-02T17:31:17.174Z,4.19
2023-04-02T17:36:00.137Z,4.10
2023-04-02T17:53:23.125Z,3.67
2023-04-02T17:57:53.357Z,3.55
2023-04-02T18:02:34.562Z,3.46
2023-04-02T18:29:44.967Z,3.03
2023-04-02T18:34:17.185Z,2.94
2023-04-02T18:52:43.052Z,2.73
2023-04-02T18:57:19.896Z,2.64
2023-04-02T19:01:50.310Z,2.58
2023-04-02T19:06:25.500Z,2.53
2023-04-02T19:11:13.038Z,2.50
2023-04-02T19:42:43.997Z,2.23
2023-04-02T19:47:13.801Z,2.19
2023-04-02T19:51:43.043Z,2.17
2023-04-02T19:56:13.488Z,2.12
2023-04-02T20:00:42.598Z,2.06
2023-04-02T20:22:15.840Z,1.97
2023-04-02T20:26:51.477Z,1.91
2023-04-02T20:31:21.548Z,1.85
2023-04-02T20:35:40.823Z,1.82
2023-04-02T20:39:47.733Z,1.77
2023-04-02T20:44:09.515Z,1.75
2023-04-02T20:48:43.356Z,1.72
2023-04-02T21:05:50.351Z,1.68
2023-04-02T21:10:20.028Z,1.65
2023-04-02T21:14:45.365Z,1.60
2023-04-02T21:35:59.142Z,1.45
2023-04-02T21:40:29.575Z,1.39
2023-04-02T21:44:59.569Z,1.33
2023-04-02T21:49:29.227Z,1.27
2023-04-02T22:06:45.319Z,1.02
2023-04-02T22:11:14.602Z,0.89
2023-04-02T22:15:44.435Z,0.78
2023-04-02T22:20:06.276Z,0.69
2023-04-02T22:24:31.931Z,0.63
2023-04-02T22:29:06.245Z,0.60
2023-04-02T23:04:15.998Z,0.29
2023-04-02T23:08:38.448Z,0.23
2023-04-02T23:13:08.027Z,0.12
2023-04-02T23:17:26.388Z,0.06
2023-04-02T23:21:48.285Z,-0.01
2023-04-02T23:26:18.272Z,-0.10
2023-04-02T23:30:48.491Z,-0.16
2023-04-02T23:56:54.418Z,-0.37
